createdAt,value
2019-05-25T00:00:16.341Z,18.31
2019-05-25T00:00:56.949Z,18.28
2019-05-25T00:01:37.532Z,18.29
2019-05-25T00:02:18.078Z,18.26
2019-05-25T00:02:58.645Z,18.23
2019-05-25T00:03:39.268Z,18.29
2019-05-25T00:04:19.820Z,18.23
2019-05-25T00:05:00.376Z,18.26
2019-05-25T00:08:14.275Z,18.22
2019-05-25T00:08:54.831Z,18.18
2019-05-25T00:09:35.439Z,18.15
2019-05-25T00:10:15.973Z,18.19
2019-05-25T00:10:56.519Z,18.13
2019-05-25T00:11:37.083Z,18.03
2019-05-25T00:12:17.634Z,18.11
2019-05-25T00:12:58.215Z,18.15
2019-05-25T00:13:38.776Z,18.11
2019-05-25T00:14:19.384Z,18.07
2019-05-25T00:14:59.971Z,18.07
2019-05-25T00:15:40.747Z,18.05
2019-05-25T00:16:21.333Z,18.08
2019-05-25T00:17:01.904Z,17.98
2019-05-25T00:17:42.521Z,18.03
2019-05-25T00:18:23.100Z,18.04
2019-05-25T00:19:03.710Z,18.07
2019-05-25T00:19:44.250Z,18.04
2019-05-25T00:20:24.878Z,18.04
2019-05-25T00:21:05.444Z,18
2019-05-25T00:21:45.996Z,18.03
2019-05-25T00:22:26.604Z,17.98
2019-05-25T00:23:07.207Z,18
2019-05-25T00:23:47.772Z,18.03
2019-05-25T00:24:28.356Z,17.98
2019-05-25T00:25:08.919Z,18.03
2019-05-25T00:25:49.527Z,18
2019-05-25T00:26:30.143Z,17.98
2019-05-25T00:27:10.771Z,17.94
2019-05-25T00:27:51.335Z,17.95
2019-05-25T00:28:31.910Z,17.98
2019-05-25T00:29:12.472Z,18
2019-05-25T00:29:53.025Z,17.92
2019-05-25T00:30:33.692Z,17.94
2019-05-25T00:31:14.264Z,17.94
2019-05-25T00:31:54.828Z,17.9
2019-05-25T00:32:35.390Z,17.92
2019-05-25T00:33:16.016Z,17.9
2019-05-25T00:33:56.569Z,17.85
2019-05-25T00:34:37.151Z,17.83
2019-05-25T00:35:17.688Z,17.89
2019-05-25T00:35:58.241Z,17.86
2019-05-25T00:36:38.791Z,17.9
2019-05-25T00:37:19.371Z,17.86
2019-05-25T00:37:59.947Z,17.79
2019-05-25T00:41:13.938Z,17.87
2019-05-25T00:41:54.513Z,17.72
2019-05-25T00:42:35.098Z,17.87
2019-05-25T00:43:15.697Z,17.86
2019-05-25T00:43:56.258Z,17.72
2019-05-25T00:44:36.827Z,17.76
2019-05-25T00:45:17.386Z,17.74
2019-05-25T00:45:57.929Z,17.72
2019-05-25T00:46:38.502Z,17.76
2019-05-25T00:47:19.109Z,17.74
2019-05-25T00:47:59.671Z,17.79
2019-05-25T00:50:12.508Z,17.8
2019-05-25T00:50:53.077Z,17.7
2019-05-25T00:51:33.642Z,17.7
2019-05-25T00:52:14.211Z,17.71
2019-05-25T00:52:54.772Z,17.72
2019-05-25T00:53:35.333Z,17.72
2019-05-25T00:54:27.345Z,17.6
2019-05-25T00:54:56.486Z,17.57
2019-05-25T00:55:38.134Z,17.59
2019-05-25T00:56:18.727Z,17.68
2019-05-25T00:56:59.291Z,17.56
2019-05-25T00:57:39.891Z,17.67
2019-05-25T00:58:20.425Z,17.65
2019-05-25T00:59:01.040Z,17.68
2019-05-25T00:59:41.642Z,17.64
2019-05-25T01:00:22.199Z,17.59
2019-05-25T01:01:02.769Z,17.59
2019-05-25T01:01:43.311Z,17.65
2019-05-25T01:02:23.877Z,17.57
2019-05-25T01:03:04.455Z,17.57
2019-05-25T01:03:44.998Z,17.44
2019-05-25T01:04:25.560Z,17.46
2019-05-25T01:05:06.136Z,17.44
2019-05-25T01:05:46.699Z,17.44
2019-05-25T01:06:27.257Z,17.42
2019-05-25T01:07:07.826Z,17.51
2019-05-25T01:07:48.390Z,17.51
2019-05-25T01:08:28.941Z,17.45
2019-05-25T01:09:09.516Z,17.44
2019-05-25T01:09:50.064Z,17.44
2019-05-25T01:10:30.637Z,17.41
2019-05-25T01:11:11.205Z,17.44
2019-05-25T01:11:51.768Z,17.34
2019-05-25T01:12:32.337Z,17.31
2019-05-25T01:13:12.902Z,17.31
2019-05-25T01:13:53.472Z,17.29
2019-05-25T01:14:34.050Z,17.36
2019-05-25T01:15:14.614Z,17.31
2019-05-25T01:15:55.167Z,17.33
2019-05-25T01:16:35.729Z,17.24
2019-05-25T01:17:16.316Z,17.23
2019-05-25T01:17:56.908Z,17.15
2019-05-25T01:18:37.458Z,17.23
2019-05-25T01:19:18.034Z,17.23
2019-05-25T01:19:58.599Z,17.19
2019-05-25T01:20:39.182Z,17.22
2019-05-25T01:21:19.743Z,17.19
2019-05-25T01:22:00.310Z,17.19
2019-05-25T01:22:40.871Z,17.11
2019-05-25T01:23:21.450Z,17.09
2019-05-25T01:24:02.046Z,17.11
2019-05-25T01:24:44.573Z,17.11
2019-05-25T01:25:23.207Z,17.09
2019-05-25T01:26:03.777Z,17.22
2019-05-25T01:26:44.355Z,17.14
2019-05-25T01:27:24.907Z,17.09
2019-05-25T01:28:05.483Z,17.09
2019-05-25T01:28:46.039Z,17.06
2019-05-25T01:29:26.617Z,17.08
2019-05-25T01:30:07.174Z,17.02
2019-05-25T01:30:47.748Z,17.06
2019-05-25T01:31:28.332Z,17.01
2019-05-25T01:32:08.906Z,17.04
2019-05-25T01:32:49.478Z,16.99
2019-05-25T01:33:30.039Z,16.99
2019-05-25T01:34:10.618Z,17.02
2019-05-25T01:34:51.157Z,16.99
2019-05-25T01:35:31.726Z,16.96
2019-05-25T01:36:12.292Z,16.91
2019-05-25T01:36:52.846Z,16.87
2019-05-25T01:37:33.418Z,16.94
2019-05-25T01:38:13.993Z,16.9
2019-05-25T01:38:54.550Z,16.96
2019-05-25T01:39:35.122Z,16.91
2019-05-25T01:40:15.709Z,16.96
2019-05-25T01:40:56.243Z,16.91
2019-05-25T01:41:36.843Z,16.84
2019-05-25T01:42:17.378Z,16.83
2019-05-25T01:42:57.945Z,16.91
2019-05-25T01:43:38.546Z,16.83
2019-05-25T01:44:19.110Z,16.76
2019-05-25T01:44:59.677Z,16.79
2019-05-25T01:45:40.233Z,16.87
2019-05-25T01:46:20.787Z,16.83
2019-05-25T01:47:01.358Z,16.78
2019-05-25T01:47:41.928Z,16.78
2019-05-25T01:48:22.480Z,16.79
2019-05-25T01:49:03.046Z,16.79
2019-05-25T01:49:43.607Z,16.72
2019-05-25T01:50:24.173Z,16.78
2019-05-25T01:51:04.730Z,16.75
2019-05-25T01:51:45.287Z,16.68
2019-05-25T01:52:25.841Z,16.74
2019-05-25T01:53:06.414Z,16.71
2019-05-25T01:53:46.979Z,16.78
2019-05-25T01:54:27.566Z,16.66
2019-05-25T01:55:08.130Z,16.64
2019-05-25T01:55:48.693Z,16.75
2019-05-25T01:56:29.282Z,16.69
2019-05-25T01:57:09.870Z,16.68
2019-05-25T01:57:50.395Z,16.75
2019-05-25T01:58:30.968Z,16.74
2019-05-25T01:59:11.531Z,16.66
2019-05-25T01:59:52.097Z,16.64
2019-05-25T02:00:32.716Z,16.65
2019-05-25T02:01:13.283Z,16.65
2019-05-25T02:01:53.844Z,16.61
2019-05-25T02:02:34.406Z,16.61
2019-05-25T02:03:15.026Z,16.57
2019-05-25T02:03:55.590Z,16.6
2019-05-25T02:04:36.204Z,16.64
2019-05-25T02:05:16.713Z,16.6
2019-05-25T02:05:57.270Z,16.51
2019-05-25T02:06:37.890Z,16.56
2019-05-25T02:07:18.404Z,16.57
2019-05-25T02:07:58.978Z,16.56
2019-05-25T02:08:39.542Z,16.47
2019-05-25T02:09:20.111Z,16.49
2019-05-25T02:10:00.674Z,16.46
2019-05-25T02:10:41.235Z,16.5
2019-05-25T02:11:21.810Z,16.49
2019-05-25T02:12:02.452Z,16.49
2019-05-25T02:12:42.943Z,16.42
2019-05-25T02:13:23.512Z,16.43
2019-05-25T02:14:04.066Z,16.41
2019-05-25T02:14:44.625Z,16.41
2019-05-25T02:15:25.171Z,16.41
2019-05-25T02:16:05.727Z,16.46
2019-05-25T02:16:46.302Z,16.47
2019-05-25T02:17:26.850Z,16.39
2019-05-25T02:18:07.405Z,16.42
2019-05-25T02:18:47.951Z,16.41
2019-05-25T02:19:28.507Z,16.38
2019-05-25T02:20:09.082Z,16.39
2019-05-25T02:20:49.643Z,16.36
2019-05-25T02:21:30.216Z,16.39
2019-05-25T02:22:10.781Z,16.36
2019-05-25T02:22:51.350Z,16.36
2019-05-25T02:23:31.923Z,16.36
2019-05-25T02:24:12.488Z,16.36
2019-05-25T02:24:53.060Z,16.32
2019-05-25T02:25:33.621Z,16.32
2019-05-25T02:26:14.209Z,16.24
2019-05-25T02:26:54.796Z,16.31
2019-05-25T02:27:35.357Z,16.24
2019-05-25T02:28:15.920Z,16.24
2019-05-25T02:28:56.493Z,16.21
2019-05-25T02:29:37.056Z,16.26
2019-05-25T02:30:17.676Z,16.13
2019-05-25T02:30:58.174Z,16.21
2019-05-25T02:31:38.733Z,16.15
2019-05-25T02:32:19.312Z,16.1
2019-05-25T02:32:59.867Z,16.16
2019-05-25T02:33:40.434Z,16.21
2019-05-25T02:34:20.992Z,16.05
2019-05-25T02:35:01.555Z,16.16
2019-05-25T02:35:42.135Z,16.26
2019-05-25T02:36:22.705Z,16.13
2019-05-25T02:37:03.259Z,16.13
2019-05-25T02:37:43.817Z,16.12
2019-05-25T02:38:24.403Z,16.09
2019-05-25T02:39:05.005Z,16.09
2019-05-25T02:39:45.523Z,16.05
2019-05-25T02:40:26.075Z,16.1
2019-05-25T02:41:06.629Z,16.02
2019-05-25T02:41:47.179Z,16
2019-05-25T02:42:27.735Z,16.08
2019-05-25T02:43:08.289Z,15.98
2019-05-25T02:43:48.850Z,16.05
2019-05-25T02:44:29.409Z,16.04
2019-05-25T02:45:09.981Z,16.01
2019-05-25T02:45:50.528Z,16
2019-05-25T02:46:31.080Z,15.97
2019-05-25T02:47:11.673Z,15.94
2019-05-25T02:47:52.230Z,15.98
2019-05-25T02:48:32.788Z,16
2019-05-25T02:49:13.359Z,15.95
2019-05-25T02:49:53.953Z,15.98
2019-05-25T02:50:34.517Z,15.95
2019-05-25T02:51:15.084Z,15.94
2019-05-25T02:51:55.647Z,15.95
2019-05-25T02:52:36.271Z,15.97
2019-05-25T02:53:16.783Z,15.98
2019-05-25T02:53:57.343Z,15.95
2019-05-25T02:54:37.921Z,15.84
2019-05-25T02:55:32.808Z,15.9
2019-05-25T02:55:59.035Z,15.86
2019-05-25T02:56:39.598Z,15.91
2019-05-25T02:57:20.184Z,15.76
2019-05-25T02:58:00.753Z,15.83
2019-05-25T02:58:41.322Z,15.84
2019-05-25T02:59:21.864Z,15.84
2019-05-25T03:00:02.453Z,15.91
2019-05-25T03:00:42.998Z,15.82
2019-05-25T03:01:23.554Z,15.83
2019-05-25T03:02:04.104Z,15.88
2019-05-25T03:02:44.684Z,15.76
2019-05-25T03:03:25.254Z,15.76
2019-05-25T03:04:05.812Z,15.8
2019-05-25T03:04:46.383Z,15.77
2019-05-25T03:05:26.939Z,15.72
2019-05-25T03:06:08.098Z,15.68
2019-05-25T03:06:48.050Z,15.72
2019-05-25T03:07:28.614Z,15.64
2019-05-25T03:08:09.172Z,15.68
2019-05-25T03:08:49.726Z,15.73
2019-05-25T03:09:30.285Z,15.61
2019-05-25T03:10:10.839Z,15.68
2019-05-25T03:10:51.417Z,15.68
2019-05-25T03:11:31.990Z,15.68
2019-05-25T03:12:12.540Z,15.7
2019-05-25T03:12:53.094Z,15.58
2019-05-25T03:13:33.652Z,15.58
2019-05-25T03:14:14.212Z,15.62
2019-05-25T03:14:54.773Z,15.61
2019-05-25T03:15:35.331Z,15.52
2019-05-25T03:16:15.925Z,15.54
2019-05-25T03:16:56.498Z,15.55
2019-05-25T03:17:37.054Z,15.44
2019-05-25T03:18:17.642Z,15.49
2019-05-25T03:18:58.208Z,15.54
2019-05-25T03:19:38.764Z,15.46
2019-05-25T03:20:19.328Z,15.49
2019-05-25T03:20:59.901Z,15.47
2019-05-25T03:21:40.453Z,15.47
2019-05-25T03:22:20.990Z,15.37
2019-05-25T03:23:01.571Z,15.44
2019-05-25T03:23:42.127Z,15.42
2019-05-25T03:24:22.688Z,15.44
2019-05-25T03:25:03.249Z,15.35
2019-05-25T03:25:49.408Z,15.35
2019-05-25T03:26:24.384Z,15.33
2019-05-25T03:27:04.995Z,15.39
2019-05-25T03:27:45.729Z,15.44
2019-05-25T03:28:26.097Z,15.37
2019-05-25T03:29:06.665Z,15.37
2019-05-25T03:29:47.223Z,15.44
2019-05-25T03:30:27.819Z,15.35
2019-05-25T03:31:08.388Z,15.44
2019-05-25T03:31:48.953Z,15.4
2019-05-25T03:32:29.516Z,15.37
2019-05-25T03:33:10.085Z,15.31
2019-05-25T03:33:50.655Z,15.31
2019-05-25T03:34:31.232Z,15.39
2019-05-25T03:35:11.800Z,15.42
2019-05-25T03:35:52.365Z,15.37
2019-05-25T03:36:33.003Z,15.39
2019-05-25T03:37:13.489Z,15.37
2019-05-25T03:37:54.060Z,15.4
2019-05-25T03:38:34.629Z,15.37
2019-05-25T03:39:15.196Z,15.4
2019-05-25T03:39:55.765Z,15.35
2019-05-25T03:40:36.330Z,15.31
2019-05-25T03:41:16.911Z,15.39
2019-05-25T03:41:57.481Z,15.29
2019-05-25T03:42:38.048Z,15.35
2019-05-25T03:43:18.611Z,15.29
2019-05-25T03:43:59.172Z,15.28
2019-05-25T03:44:39.776Z,15.29
2019-05-25T03:45:20.348Z,15.28
2019-05-25T03:46:00.923Z,15.28
2019-05-25T03:46:41.494Z,15.29
2019-05-25T03:47:22.044Z,15.25
2019-05-25T03:48:02.655Z,15.29
2019-05-25T03:48:43.228Z,15.33
2019-05-25T03:49:23.787Z,15.33
2019-05-25T03:50:04.341Z,15.28
2019-05-25T03:50:44.913Z,15.29
2019-05-25T03:51:25.479Z,15.27
2019-05-25T03:52:06.058Z,15.27
2019-05-25T03:52:46.629Z,15.28
2019-05-25T03:53:27.205Z,15.31
2019-05-25T03:54:07.783Z,15.31
2019-05-25T03:54:48.354Z,15.31
2019-05-25T03:55:28.924Z,15.28
2019-05-25T03:56:09.493Z,15.25
2019-05-25T03:56:50.041Z,15.27
2019-05-25T03:57:30.612Z,15.22
2019-05-25T03:58:11.165Z,15.28
2019-05-25T03:58:51.713Z,15.24
2019-05-25T03:59:32.269Z,15.15
2019-05-25T04:00:12.845Z,15.17
2019-05-25T04:00:53.412Z,15.14
2019-05-25T04:01:33.966Z,15.11
2019-05-25T04:02:14.522Z,15.07
2019-05-25T04:02:55.094Z,15.11
2019-05-25T04:03:35.680Z,15.06
2019-05-25T04:04:16.245Z,15.15
2019-05-25T04:04:56.842Z,15.11
2019-05-25T04:05:37.431Z,14.97
2019-05-25T04:06:18.010Z,15
2019-05-25T04:06:58.620Z,14.96
2019-05-25T04:07:39.175Z,14.96
2019-05-25T04:08:19.738Z,14.97
2019-05-25T04:09:00.305Z,14.91
2019-05-25T04:09:40.876Z,14.91
2019-05-25T04:10:21.481Z,14.91
2019-05-25T04:11:02.066Z,14.81
2019-05-25T04:11:42.618Z,14.88
2019-05-25T04:12:23.183Z,14.91
2019-05-25T04:13:03.736Z,14.92
2019-05-25T04:13:44.309Z,14.84
2019-05-25T04:14:24.869Z,14.88
2019-05-25T04:15:05.443Z,14.86
2019-05-25T04:15:46.002Z,14.89
2019-05-25T04:16:26.572Z,14.85
2019-05-25T04:17:07.136Z,14.86
2019-05-25T04:17:47.697Z,14.86
2019-05-25T04:18:28.271Z,14.84
2019-05-25T04:19:08.823Z,14.81
2019-05-25T04:19:49.386Z,14.73
2019-05-25T04:20:29.954Z,14.7
2019-05-25T04:21:10.554Z,14.69
2019-05-25T04:21:51.121Z,14.85
2019-05-25T04:22:31.682Z,14.77
2019-05-25T04:23:12.269Z,14.84
2019-05-25T04:23:52.826Z,14.82
2019-05-25T04:24:33.438Z,14.84
2019-05-25T04:25:14.000Z,14.81
2019-05-25T04:25:54.592Z,14.88
2019-05-25T04:26:35.151Z,14.89
2019-05-25T04:27:15.737Z,14.81
2019-05-25T04:27:56.303Z,14.88
2019-05-25T04:28:36.852Z,14.91
2019-05-25T04:29:17.438Z,14.92
2019-05-25T04:29:58.006Z,14.85
2019-05-25T04:30:38.560Z,14.91
2019-05-25T04:31:19.165Z,14.94
2019-05-25T04:31:59.714Z,15
2019-05-25T04:32:40.291Z,14.94
2019-05-25T04:33:20.875Z,14.94
2019-05-25T04:34:01.446Z,14.94
2019-05-25T04:34:42.065Z,14.97
2019-05-25T04:35:22.584Z,14.96
2019-05-25T04:36:03.150Z,14.94
2019-05-25T04:36:43.716Z,14.94
2019-05-25T04:37:24.304Z,14.96
2019-05-25T04:38:04.860Z,14.99
2019-05-25T04:38:45.431Z,14.97
2019-05-25T04:39:26.003Z,14.94
2019-05-25T04:40:06.563Z,14.96
2019-05-25T04:40:47.127Z,15
2019-05-25T04:41:27.680Z,14.99
2019-05-25T04:42:08.249Z,14.99
2019-05-25T04:42:48.853Z,15
2019-05-25T04:43:29.470Z,14.96
2019-05-25T04:44:09.961Z,14.96
2019-05-25T04:44:50.566Z,14.96
2019-05-25T04:45:31.127Z,14.97
2019-05-25T04:46:11.721Z,14.99
2019-05-25T04:46:52.276Z,14.94
2019-05-25T04:47:32.856Z,14.97
2019-05-25T04:48:13.434Z,14.99
2019-05-25T04:48:53.996Z,15.02
2019-05-25T04:49:34.559Z,14.94
2019-05-25T04:50:15.124Z,14.97
2019-05-25T04:50:55.723Z,14.96
2019-05-25T04:51:36.464Z,14.96
2019-05-25T04:52:17.023Z,14.94
2019-05-25T04:52:57.576Z,15
2019-05-25T04:53:38.138Z,14.97
2019-05-25T04:54:18.690Z,14.94
2019-05-25T04:54:59.244Z,14.96
2019-05-25T04:55:39.800Z,15.02
2019-05-25T04:56:20.369Z,14.97
2019-05-25T04:57:00.940Z,14.99
2019-05-25T04:57:41.518Z,14.94
2019-05-25T04:58:22.112Z,15
2019-05-25T04:59:02.656Z,15.04
2019-05-25T04:59:43.206Z,15.03
2019-05-25T05:00:23.761Z,14.97
2019-05-25T05:01:04.352Z,15
2019-05-25T05:01:44.913Z,14.99
2019-05-25T05:02:25.500Z,15.02
2019-05-25T05:03:06.082Z,15.03
2019-05-25T05:03:46.651Z,15.06
2019-05-25T05:04:27.222Z,15.09
2019-05-25T05:05:07.796Z,15.06
2019-05-25T05:05:48.351Z,15.07
2019-05-25T05:06:28.910Z,15.1
2019-05-25T05:07:09.521Z,15.11
2019-05-25T05:07:50.087Z,15.09
2019-05-25T05:08:30.664Z,15.1
2019-05-25T05:09:11.216Z,15
2019-05-25T05:10:01.966Z,15.11
2019-05-25T05:10:32.320Z,15.14
2019-05-25T05:11:12.883Z,15.14
2019-05-25T05:11:53.466Z,15.17
2019-05-25T05:12:34.031Z,15.07
2019-05-25T05:13:14.597Z,15.14
2019-05-25T05:13:55.161Z,15.15
2019-05-25T05:14:35.729Z,15.09
2019-05-25T05:15:16.296Z,15.09
2019-05-25T05:15:56.858Z,15.09
2019-05-25T05:16:37.422Z,15.1
2019-05-25T05:17:17.991Z,14.99
2019-05-25T05:17:58.574Z,14.99
2019-05-25T05:18:39.131Z,15.09
2019-05-25T05:19:19.694Z,15.03
2019-05-25T05:20:00.254Z,15.03
2019-05-25T05:20:40.815Z,15.02
2019-05-25T05:21:21.372Z,14.99
2019-05-25T05:22:05.062Z,14.99
2019-05-25T05:22:42.525Z,14.97
2019-05-25T05:23:23.119Z,15.06
2019-05-25T05:24:03.673Z,15.02
2019-05-25T05:24:44.249Z,15.02
2019-05-25T05:25:24.909Z,15.03
2019-05-25T05:26:05.486Z,15.06
2019-05-25T05:26:55.104Z,15.18
2019-05-25T05:27:26.624Z,15.24
2019-05-25T05:28:07.188Z,15.29
2019-05-25T05:28:49.196Z,15.36
2019-05-25T05:29:28.308Z,15.4
2019-05-25T05:30:08.878Z,15.44
2019-05-25T05:30:49.441Z,15.55
2019-05-25T05:31:30.003Z,15.61
2019-05-25T05:32:10.562Z,15.67
2019-05-25T05:32:51.126Z,15.79
2019-05-25T05:33:31.679Z,15.84
2019-05-25T05:34:12.251Z,15.88
2019-05-25T05:34:52.836Z,15.92
2019-05-25T05:35:33.392Z,15.86
2019-05-25T05:36:13.954Z,15.98
2019-05-25T05:36:54.528Z,15.92
2019-05-25T05:37:35.115Z,16.01
2019-05-25T05:38:15.866Z,15.98
2019-05-25T05:38:56.449Z,16.21
2019-05-25T05:39:37.037Z,16.31
2019-05-25T05:40:17.603Z,16.36
2019-05-25T05:40:58.208Z,16.57
2019-05-25T05:41:38.764Z,16.64
2019-05-25T05:42:19.338Z,16.64
2019-05-25T05:42:59.899Z,16.72
2019-05-25T05:43:40.460Z,16.72
2019-05-25T05:44:21.036Z,16.83
2019-05-25T05:45:01.616Z,16.84
2019-05-25T05:45:42.198Z,16.96
2019-05-25T05:46:22.785Z,17.08
2019-05-25T05:47:03.351Z,17.14
2019-05-25T05:47:43.929Z,17.22
2019-05-25T05:48:24.508Z,17.22
2019-05-25T05:49:05.082Z,17.22
2019-05-25T05:49:45.655Z,17.16
2019-05-25T05:50:26.223Z,17.23
2019-05-25T05:51:06.800Z,17.3
2019-05-25T05:51:47.362Z,17.33
2019-05-25T05:52:27.942Z,17.39
2019-05-25T05:53:08.541Z,17.49
2019-05-25T05:53:49.146Z,17.6
2019-05-25T05:54:29.744Z,17.64
2019-05-25T05:55:10.308Z,17.86
2019-05-25T05:55:50.877Z,17.92
2019-05-25T05:56:31.454Z,17.98
2019-05-25T05:57:12.904Z,18.1
2019-05-25T05:57:52.610Z,18.1
2019-05-25T05:58:33.214Z,18.25
2019-05-25T05:59:13.804Z,18.28
2019-05-25T05:59:54.384Z,18.29
2019-05-25T06:00:34.955Z,18.33
2019-05-25T06:01:15.526Z,18.38
2019-05-25T06:01:56.086Z,18.45
2019-05-25T06:02:36.665Z,18.5
2019-05-25T06:03:17.290Z,18.53
2019-05-25T06:03:57.874Z,18.65
2019-05-25T06:04:38.533Z,18.65
2019-05-25T06:05:19.045Z,18.75
2019-05-25T06:05:59.642Z,18.8
2019-05-25T06:06:40.213Z,18.78
2019-05-25T06:07:20.770Z,18.81
2019-05-25T06:08:01.335Z,18.86
2019-05-25T06:08:41.904Z,18.92
2019-05-25T06:09:22.478Z,18.9
2019-05-25T06:10:03.053Z,18.92
2019-05-25T06:10:43.606Z,18.98
2019-05-25T06:11:24.202Z,19.02
2019-05-25T06:12:04.767Z,19.16
2019-05-25T06:12:45.342Z,19.16
2019-05-25T06:13:25.936Z,19.31
2019-05-25T06:14:06.538Z,19.33
2019-05-25T06:14:47.109Z,19.39
2019-05-25T06:15:27.700Z,19.3
2019-05-25T06:16:08.293Z,19.4
2019-05-25T06:16:48.859Z,19.29
2019-05-25T06:17:29.441Z,19.3
2019-05-25T06:18:10.021Z,19.33
2019-05-25T06:18:50.655Z,19.39
2019-05-25T06:19:31.211Z,19.27
2019-05-25T06:20:11.801Z,19.31
2019-05-25T06:20:52.370Z,19.27
2019-05-25T06:21:32.947Z,19.21
2019-05-25T06:22:13.540Z,19.24
2019-05-25T06:22:54.115Z,19.15
2019-05-25T06:23:34.696Z,19.15
2019-05-25T06:24:15.278Z,19.19
2019-05-25T06:24:55.832Z,19.39
2019-05-25T06:25:36.408Z,19.37
2019-05-25T06:26:16.975Z,19.49
2019-05-25T06:26:57.542Z,19.51
2019-05-25T06:27:38.115Z,19.58
2019-05-25T06:28:22.220Z,19.48
2019-05-25T06:28:59.666Z,19.44
2019-05-25T06:29:40.485Z,19.29
2019-05-25T06:30:21.177Z,19.19
2019-05-25T06:31:01.967Z,19.07
2019-05-25T06:31:42.560Z,18.99
2019-05-25T06:32:23.195Z,19.04
2019-05-25T06:33:03.798Z,18.93
2019-05-25T06:33:45.088Z,19.11
2019-05-25T06:36:59.057Z,18.73
2019-05-25T06:37:39.669Z,18.66
2019-05-25T06:38:20.239Z,18.53
2019-05-25T06:39:00.868Z,18.41
2019-05-25T06:39:41.527Z,18.31
2019-05-25T06:40:22.063Z,18.23
2019-05-25T06:41:02.761Z,18.08
2019-05-25T06:41:43.354Z,17.97
2019-05-25T06:42:23.937Z,17.92
2019-05-25T06:43:04.546Z,18.08
2019-05-25T06:43:45.155Z,18.11
2019-05-25T06:44:25.714Z,18.15
2019-05-25T06:45:06.275Z,18.22
2019-05-25T06:45:46.861Z,18.2
2019-05-25T06:46:27.460Z,18.15
2019-05-25T06:47:07.999Z,18.33
2019-05-25T06:47:48.590Z,18.34
2019-05-25T06:48:29.229Z,18.34
2019-05-25T06:49:09.829Z,18.44
2019-05-25T06:49:50.458Z,18.41
2019-05-25T06:50:32.219Z,18.41
2019-05-25T06:51:12.985Z,18.38
2019-05-25T06:51:53.563Z,18.31
2019-05-25T06:52:34.194Z,18.34
2019-05-25T06:53:15.188Z,18.18
2019-05-25T06:53:55.927Z,18.19
2019-05-25T06:56:54.983Z,18.04
2019-05-25T06:57:42.870Z,18.01
2019-05-25T06:58:16.045Z,17.97
2019-05-25T06:58:56.598Z,17.95
2019-05-25T06:59:37.268Z,17.95
2019-05-25T07:00:17.829Z,18.03
2019-05-25T07:00:58.459Z,18.18
2019-05-25T07:01:39.035Z,18.11
2019-05-25T07:02:22.531Z,18.15
2019-05-25T07:03:00.164Z,18.18
2019-05-25T07:03:40.748Z,18.19
2019-05-25T07:06:39.588Z,18.01
2019-05-25T07:07:20.177Z,17.9
2019-05-25T07:08:00.741Z,17.89
2019-05-25T07:08:41.305Z,17.74
2019-05-25T07:09:21.915Z,17.67
2019-05-25T07:10:02.481Z,17.57
2019-05-25T07:10:43.059Z,17.6
2019-05-25T07:11:23.631Z,17.46
2019-05-25T07:12:04.426Z,17.46
2019-05-25T07:12:45.042Z,17.45
2019-05-25T07:13:28.351Z,17.45
2019-05-25T07:14:06.239Z,17.49
2019-05-25T07:14:46.818Z,17.46
2019-05-25T07:15:28.380Z,17.46
2019-05-25T07:16:09.109Z,17.42
2019-05-25T07:16:49.782Z,17.49
2019-05-25T07:17:30.504Z,17.42
2019-05-25T07:18:11.089Z,17.48
2019-05-25T07:18:51.699Z,17.51
2019-05-25T07:19:32.264Z,17.44
2019-05-25T07:20:12.841Z,17.6
2019-05-25T07:20:53.396Z,17.64
2019-05-25T07:21:33.959Z,17.65
2019-05-25T07:22:14.525Z,17.6
2019-05-25T07:22:55.104Z,17.57
2019-05-25T07:23:35.680Z,17.48
2019-05-25T07:24:16.243Z,17.51
2019-05-25T07:24:56.802Z,17.46
2019-05-25T07:25:37.402Z,17.42
2019-05-25T07:26:17.997Z,17.63
2019-05-25T07:26:58.571Z,17.65
2019-05-25T07:27:39.702Z,17.67
2019-05-25T07:28:20.399Z,17.6
2019-05-25T07:29:01.220Z,17.51
2019-05-25T07:29:41.790Z,17.56
2019-05-25T07:30:22.360Z,17.54
2019-05-25T07:31:02.956Z,17.67
2019-05-25T07:31:43.539Z,17.56
2019-05-25T07:32:24.105Z,17.59
2019-05-25T07:33:04.682Z,17.63
2019-05-25T07:33:45.240Z,17.57
2019-05-25T07:34:25.852Z,17.54
2019-05-25T07:35:06.410Z,17.64
2019-05-25T07:35:46.963Z,17.64
2019-05-25T07:36:27.566Z,17.57
2019-05-25T07:37:08.132Z,17.57
2019-05-25T07:37:48.857Z,17.56
2019-05-25T07:38:29.417Z,17.57
2019-05-25T07:39:09.985Z,17.54
2019-05-25T07:39:50.552Z,17.48
2019-05-25T07:40:31.138Z,17.49
2019-05-25T07:41:11.839Z,17.48
2019-05-25T07:41:52.387Z,17.48
2019-05-25T07:42:32.945Z,17.48
2019-05-25T07:43:13.530Z,17.49
2019-05-25T07:43:54.125Z,17.48
2019-05-25T07:44:34.693Z,17.42
2019-05-25T07:45:15.289Z,17.49
2019-05-25T07:45:55.863Z,17.44
2019-05-25T07:46:36.445Z,17.38
2019-05-25T07:47:17.079Z,17.34
2019-05-25T07:47:57.756Z,17.45
2019-05-25T07:48:38.360Z,17.45
2019-05-25T07:49:18.928Z,17.42
2019-05-25T07:49:59.494Z,17.48
2019-05-25T07:50:40.057Z,17.57
2019-05-25T07:51:20.624Z,17.48
2019-05-25T07:52:02.702Z,17.63
2019-05-25T07:52:41.763Z,17.65
2019-05-25T07:53:22.343Z,17.59
2019-05-25T07:54:02.906Z,17.64
2019-05-25T07:54:43.497Z,17.67
2019-05-25T07:55:24.057Z,17.65
2019-05-25T07:56:04.625Z,17.57
2019-05-25T07:56:45.202Z,17.54
2019-05-25T07:57:28.520Z,17.51
2019-05-25T07:58:16.203Z,17.48
2019-05-25T07:58:46.935Z,17.51
2019-05-25T07:59:27.477Z,17.51
2019-05-25T08:00:08.048Z,17.39
2019-05-25T08:00:48.614Z,17.39
2019-05-25T08:01:29.178Z,17.31
2019-05-25T08:02:09.757Z,17.34
2019-05-25T08:02:50.330Z,17.33
2019-05-25T08:03:30.895Z,17.31
2019-05-25T08:04:11.508Z,17.38
2019-05-25T08:04:52.065Z,17.34
2019-05-25T08:05:32.681Z,17.34
2019-05-25T08:06:13.259Z,17.23
2019-05-25T08:06:53.849Z,17.22
2019-05-25T08:07:34.463Z,17.26
2019-05-25T08:08:15.016Z,17.14
2019-05-25T08:08:55.591Z,17.14
2019-05-25T08:09:36.164Z,17.11
2019-05-25T08:10:16.731Z,17.05
2019-05-25T08:10:57.305Z,16.99
2019-05-25T08:11:37.880Z,17.02
2019-05-25T08:12:18.476Z,16.99
2019-05-25T08:12:59.047Z,16.99
2019-05-25T08:13:39.639Z,16.89
2019-05-25T08:14:20.208Z,16.93
2019-05-25T08:15:00.761Z,16.9
2019-05-25T08:15:41.329Z,16.97
2019-05-25T08:16:21.895Z,16.94
2019-05-25T08:17:02.477Z,16.9
2019-05-25T08:17:43.087Z,16.86
2019-05-25T08:18:23.650Z,16.78
2019-05-25T08:19:04.451Z,16.76
2019-05-25T08:19:45.008Z,16.71
2019-05-25T08:20:25.592Z,16.72
2019-05-25T08:21:06.622Z,16.76
2019-05-25T08:21:47.923Z,16.75
2019-05-25T08:22:28.705Z,16.78
2019-05-25T08:23:10.054Z,16.71
2019-05-25T08:23:50.924Z,16.68
2019-05-25T08:24:32.454Z,16.75
2019-05-25T08:25:13.025Z,16.79
2019-05-25T08:25:53.583Z,16.83
2019-05-25T08:26:34.148Z,16.81
2019-05-25T08:27:14.707Z,16.83
2019-05-25T08:27:55.290Z,16.84
2019-05-25T08:28:35.851Z,16.81
2019-05-25T08:29:16.414Z,16.97
2019-05-25T08:29:56.980Z,16.9
2019-05-25T08:30:37.577Z,16.94
2019-05-25T08:31:18.180Z,16.96
2019-05-25T08:31:58.845Z,17.02
2019-05-25T08:32:39.429Z,16.97
2019-05-25T08:33:20.046Z,16.99
2019-05-25T08:34:00.654Z,17.05
2019-05-25T08:34:41.260Z,17.06
2019-05-25T08:35:21.838Z,17.08
2019-05-25T08:36:02.419Z,17.08
2019-05-25T08:36:42.969Z,17.09
2019-05-25T08:37:23.536Z,17.05
2019-05-25T08:38:04.085Z,17.08
2019-05-25T08:38:44.655Z,17.01
2019-05-25T08:39:25.253Z,17.08
2019-05-25T08:40:05.827Z,17.02
2019-05-25T08:40:46.403Z,17.04
2019-05-25T08:41:26.998Z,16.97
2019-05-25T08:42:07.562Z,17.04
2019-05-25T08:42:48.117Z,17.02
2019-05-25T08:43:28.689Z,17.01
2019-05-25T08:44:09.240Z,16.97
2019-05-25T08:44:49.817Z,16.96
2019-05-25T08:45:30.434Z,16.96
2019-05-25T08:46:10.999Z,16.87
2019-05-25T08:46:54.752Z,16.84
2019-05-25T08:47:32.178Z,16.83
2019-05-25T08:48:12.750Z,16.87
2019-05-25T08:48:53.307Z,16.86
2019-05-25T08:49:33.868Z,16.72
2019-05-25T08:50:14.433Z,16.81
2019-05-25T08:50:55.007Z,16.66
2019-05-25T08:51:35.610Z,16.61
2019-05-25T08:52:16.170Z,16.58
2019-05-25T08:52:56.753Z,16.56
2019-05-25T08:53:41.727Z,16.57
2019-05-25T08:54:17.865Z,16.56
2019-05-25T08:54:58.459Z,16.51
2019-05-25T08:55:39.016Z,16.56
2019-05-25T08:56:19.613Z,16.54
2019-05-25T08:57:00.166Z,16.65
2019-05-25T08:57:40.721Z,16.66
2019-05-25T08:58:21.289Z,16.65